Time,TemperatureF,DewpointF,PressureIn,WindDirection,WindDirectionDegrees,WindSpeedMPH,WindSpeedGustMPH,Humidity,HourlyPrecipIn,Conditions,Clouds,dailyrainin,SoftwareType,DateUTC
2013-01-26 00:05:00,10.8,-6.4,29.91,NW,307,4.0,5.4,45,0.00,,CLR,0.00,VWS V14.01,2013-01-26 06:05:00,
2013-01-26 00:10:00,10.4,-6.7,29.91,NW,315,6.3,6.3,45,0.00,,CLR,0.00,VWS V14.01,2013-01-26 06:10:00,
2013-01-26 00:15:00,10.4,-6.7,29.91,NW,311,5.8,8.3,45,0.00,,CLR,0.00,VWS V14.01,2013-01-26 06:15:00,
2013-01-26 00:21:00,10.2,-6.9,29.91,NW,312,4.0,5.8,45,0.00,,CLR,0.00,VWS V14.01,2013-01-26 06:21:00,
2013-01-26 00:26:00,10.2,-6.9,29.91,NW,317,5.8,5.8,45,0.00,,CLR,0.00,VWS V14.01,2013-01-26 06:26:00,
2013-01-26 00:32:00,10.2,-6.9,29.91,NW,311,4.9,8.3,45,0.00,,CLR,0.00,VWS V14.01,2013-01-26 06:32:00,
2013-01-26 00:37:00,10.2,-6.9,29.91,NW,305,8.7,8.7,45,0.00,,CLR,0.00,VWS V14.01,2013-01-26 06:37:00,
2013-01-26 00:42:00,10.2,-6.9,29.91,NW,306,4.0,5.8,45,0.00,,CLR,0.00,VWS V14.01,2013-01-26 06:42:00,
2013-01-26 00:47:00,10.0,-7.1,29.91,WNW,303,4.0,6.3,45,0.00,,CLR,0.00,VWS V14.01,2013-01-26 06:47:00,
2013-01-26 00:52:00,10.0,-7.1,29.91,NW,304,4.9,5.8,45,0.00,,CLR,0.00,VWS V14.01,2013-01-26 06:52:00,
2013-01-26 00:57:00,9.9,-7.2,29.91,WNW,301,3.6,5.8,45,0.00,,CLR,0.00,VWS V14.01,2013-01-26 06:57:00,
2013-01-26 01:02:00,9.9,-7.2,29.91,WNW,303,4.9,5.4,45,0.00,,CLR,0.00,VWS V14.01,2013-01-26 07:02:00,
2013-01-26 01:07:00,9.7,-7.4,29.91,NW,309,4.0,4.9,45,0.00,,CLR,0.00,VWS V14.01,2013-01-26 07:07:00,
2013-01-26 01:12:00,9.7,-7.4,29.91,NW,312,6.3,6.3,45,0.00,,CLR,0.00,VWS V14.01,2013-01-26 07:12:00,
2013-01-26 01:18:00,9.5,-7.6,29.91,WNW,303,5.8,5.8,45,0.00,,CLR,0.00,VWS V14.01,2013-01-26 07:18:00,
2013-01-26 01:24:00,9.3,-7.7,29.93,NW,304,5.8,5.8,45,0.00,,CLR,0.00,VWS V14.01,2013-01-26 07:24:00,
2013-01-26 01:29:00,9.3,-7.7,29.93,NW,307,6.3,8.7,45,0.00,,CLR,0.00,VWS V14.01,2013-01-26 07:29:00,
2013-01-26 01:34:00,9.3,-7.7,29.93,NW,310,5.4,8.3,45,0.00,,CLR,0.00,VWS V14.01,2013-01-26 07:34:00,
2013-01-26 01:39:00,9.3,-7.7,29.93,NW,309,5.4,5.8,45,0.00,,CLR,0.00,VWS V14.01,2013-01-26 07:39:00,
2013-01-26 01:44:00,9.1,-7.9,29.93,NW,309,5.4,6.3,45,0.00,,CLR,0.00,VWS V14.01,2013-01-26 07:44:00,
2013-01-26 01:49:00,9.1,-7.9,29.93,NW,313,8.1,8.1,45,0.00,,CLR,0.00,VWS V14.01,2013-01-26 07:49:00,
2013-01-26 01:55:00,9.1,-7.9,29.93,NW,314,6.3,8.3,45,0.00,,CLR,0.00,VWS V14.01,2013-01-26 07:55:00,
2013-01-26 02:00:00,9.3,-7.7,29.93,NW,311,6.3,11.0,45,0.00,,CLR,0.00,VWS V14.01,2013-01-26 08:00:00,
2013-01-26 02:05:00,9.5,-7.6,29.93,NW,306,6.3,11.0,45,0.00,,CLR,0.00,VWS V14.01,2013-01-26 08:05:00,
2013-01-26 02:10:00,9.5,-7.6,29.93,NNW,331,6.3,7.6,45,0.00,,CLR,0.00,VWS V14.01,2013-01-26 08:10:00,
2013-01-26 02:16:00,9.3,-7.7,29.93,NW,320,6.3,7.6,45,0.00,,CLR,0.00,VWS V14.01,2013-01-26 08:16:00,
2013-01-26 02:21:00,9.1,-7.9,29.93,NW,316,7.6,7.6,45,0.00,,CLR,0.00,VWS V14.01,2013-01-26 08:21:00,
2013-01-26 02:27:00,9.0,-8.1,29.93,NW,312,4.0,8.3,45,0.00,,CLR,0.00,VWS V14.01,2013-01-26 08:27:00,
2013-01-26 02:32:00,8.8,-8.2,29.93,NW,323,7.6,8.1,45,0.00,,CLR,0.00,VWS V14.01,2013-01-26 08:32:00,
2013-01-26 02:38:00,8.6,-8.4,29.93,NW,325,6.3,6.3,45,0.00,,CLR,0.00,VWS V14.01,2013-01-26 08:38:00,
2013-01-26 02:43:00,8.4,-8.5,29.93,NW,323,5.4,6.3,45,0.00,,CLR,0.00,VWS V14.01,2013-01-26 08:43:00,
2013-01-26 02:49:00,8.4,-8.5,29.93,NNW,331,5.8,9.6,45,0.00,,CLR,0.00,VWS V14.01,2013-01-26 08:49:00,
2013-01-26 02:55:00,8.4,-8.5,29.93,NW,325,5.8,8.1,45,0.00,,CLR,0.00,VWS V14.01,2013-01-26 08:55:00,
2013-01-26 03:01:00,8.4,-8.5,29.93,NW,315,6.3,10.1,45,0.00,,CLR,0.00,VWS V14.01,2013-01-26 09:01:00,
2013-01-26 03:06:00,8.2,-8.7,29.93,NW,316,5.4,8.7,45,0.00,,CLR,0.00,VWS V14.01,2013-01-26 09:06:00,
2013-01-26 03:11:00,8.1,-8.9,29.96,NW,305,8.1,8.7,45,0.00,,CLR,0.00,VWS V14.01,2013-01-26 09:11:00,
2013-01-26 03:16:00,8.1,-8.9,29.96,NW,312,4.0,5.4,45,0.00,,CLR,0.00,VWS V14.01,2013-01-26 09:16:00,
2013-01-26 03:21:00,7.9,-9.0,29.96,NW,310,4.5,6.3,45,0.00,,CLR,0.00,VWS V14.01,2013-01-26 09:21:00,
2013-01-26 03:26:00,7.5,-9.4,29.96,NW,306,5.4,6.3,45,0.00,,CLR,0.00,VWS V14.01,2013-01-26 09:26:00,
2013-01-26 03:31:00,7.3,-9.5,29.96,NW,319,4.0,6.3,45,0.00,,CLR,0.00,VWS V14.01,2013-01-26 09:31:00,
2013-01-26 03:36:00,7.3,-9.5,29.96,NW,304,6.7,6.7,45,0.00,,CLR,0.00,VWS V14.01,2013-01-26 09:36:00,
2013-01-26 03:41:00,7.5,-9.4,29.96,NW,319,8.7,8.7,45,0.00,,CLR,0.00,VWS V14.01,2013-01-26 09:41:00,
2013-01-26 03:47:00,7.5,-9.4,29.96,NW,304,5.4,5.8,45,0.00,,CLR,0.00,VWS V14.01,2013-01-26 09:47:00,
2013-01-26 03:52:00,7.5,-9.4,29.96,NNW,332,5.8,5.8,45,0.00,,CLR,0.00,VWS V14.01,2013-01-26 09:52:00,
2013-01-26 03:58:00,7.3,-9.5,29.96,NW,311,4.0,4.0,45,0.00,,CLR,0.00,VWS V14.01,2013-01-26 09:58:00,
2013-01-26 04:03:00,7.3,-9.5,29.96,NW,306,3.1,5.4,45,0.00,,CLR,0.00,VWS V14.01,2013-01-26 10:03:00,
2013-01-26 04:09:00,7.0,-9.9,29.96,NW,307,3.1,3.6,45,0.00,,CLR,0.00,VWS V14.01,2013-01-26 10:09:00,
2013-01-26 04:14:00,6.8,-10.0,29.96,NW,306,4.0,4.0,45,0.00,,CLR,0.00,VWS V14.01,2013-01-26 10:14:00,
2013-01-26 04:20:00,6.6,-10.2,29.96,WNW,302,0.0,0.0,45,0.00,,CLR,0.00,VWS V14.01,2013-01-26 10:20:00,
2013-01-26 04:26:00,6.4,-10.4,29.96,WNW,295,3.1,3.1,45,0.00,,CLR,0.00,VWS V14.01,2013-01-26 10:26:00,
2013-01-26 04:32:00,6.3,-10.5,29.96,NW,310,3.6,4.9,45,0.00,,CLR,0.00,VWS V14.01,2013-01-26 10:32:00,
2013-01-26 04:37:00,6.3,-10.5,29.96,NW,305,2.7,3.1,45,0.00,,CLR,0.00,VWS V14.01,2013-01-26 10:37:00,
2013-01-26 04:42:00,6.1,-10.7,29.96,NW,305,4.0,4.0,45,0.00,,CLR,0.00,VWS V14.01,2013-01-26 10:42:00,
2013-01-26 04:47:00,6.1,-10.7,29.96,NW,315,3.6,4.0,45,0.00,,CLR,0.00,VWS V14.01,2013-01-26 10:47:00,
2013-01-26 04:52:00,6.1,-10.7,29.96,NW,310,4.9,4.9,45,0.00,,CLR,0.00,VWS V14.01,2013-01-26 10:52:00,
2013-01-26 04:58:00,6.1,-10.7,29.96,NW,307,4.9,4.9,45,0.00,,CLR,0.00,VWS V14.01,2013-01-26 10:58:00,
2013-01-26 05:03:00,5.9,-10.9,29.96,NW,306,4.9,5.4,45,0.00,,CLR,0.00,VWS V14.01,2013-01-26 11:03:00,
2013-01-26 05:08:00,5.9,-10.9,29.96,NW,313,3.1,6.3,45,0.00,,CLR,0.00,VWS V14.01,2013-01-26 11:08:00,
2013-01-26 05:13:00,5.9,-10.9,29.96,NW,309,5.8,5.8,45,0.00,,CLR,0.00,VWS V14.01,2013-01-26 11:13:00,
2013-01-26 05:19:00,5.9,-10.9,29.96,NW,316,4.9,5.8,45,0.00,,CLR,0.00,VWS V14.01,2013-01-26 11:19:00,
2013-01-26 05:24:00,5.5,-11.2,29.96,NW,323,5.4,5.4,45,0.00,,CLR,0.00,VWS V14.01,2013-01-26 11:24:00,
2013-01-26 05:29:00,5.7,-11.0,29.96,WNW,299,5.8,6.3,45,0.00,,CLR,0.00,VWS V14.01,2013-01-26 11:29:00,
2013-01-26 05:35:00,5.9,-10.9,29.96,NNW,330,5.4,8.7,45,0.00,,CLR,0.00,VWS V14.01,2013-01-26 11:35:00,
2013-01-26 05:40:00,5.9,-10.9,29.96,NW,311,7.6,8.1,45,0.00,,CLR,0.00,VWS V14.01,2013-01-26 11:40:00,
2013-01-26 05:46:00,5.9,-10.9,29.96,NW,325,5.8,5.8,45,0.00,,CLR,0.00,VWS V14.01,2013-01-26 11:46:00,
2013-01-26 05:51:00,5.9,-10.9,29.96,NW,317,7.6,7.6,45,0.00,,CLR,0.00,VWS V14.01,2013-01-26 11:51:00,
2013-01-26 05:56:00,5.9,-10.9,29.99,NNW,329,3.1,5.4,45,0.00,,CLR,0.00,VWS V14.01,2013-01-26 11:56:00,
2013-01-26 06:02:00,5.5,-11.2,29.99,NW,309,3.6,5.8,45,0.00,,CLR,0.00,VWS V14.01,2013-01-26 12:02:00,
2013-01-26 06:07:00,5.5,-11.2,29.99,NW,305,3.6,4.9,45,0.00,,CLR,0.00,VWS V14.01,2013-01-26 12:07:00,
2013-01-26 06:13:00,5.4,-11.4,29.99,NW,314,4.0,4.9,45,0.00,,CLR,0.00,VWS V14.01,2013-01-26 12:13:00,
2013-01-26 06:18:00,5.0,-11.7,29.99,NW,314,4.0,4.0,45,0.00,,CLR,0.00,VWS V14.01,2013-01-26 12:18:00,
2013-01-26 06:23:00,5.0,-11.7,29.99,NW,323,2.7,3.6,45,0.00,,CLR,0.00,VWS V14.01,2013-01-26 12:23:00,
2013-01-26 06:29:00,5.0,-11.7,29.99,NW,325,2.7,5.4,45,0.00,,CLR,0.00,VWS V14.01,2013-01-26 12:29:00,
2013-01-26 06:35:00,5.0,-11.7,29.99,NW,322,3.1,5.4,45,0.00,,CLR,0.00,VWS V14.01,2013-01-26 12:35:00,
2013-01-26 06:40:00,5.0,-11.7,29.99,NW,309,3.6,4.0,45,0.00,,CLR,0.00,VWS V14.01,2013-01-26 12:40:00,
2013-01-26 06:45:00,4.8,-11.9,29.99,NW,311,3.1,4.0,45,0.00,,CLR,0.00,VWS V14.01,2013-01-26 12:45:00,
2013-01-26 06:51:00,4.5,-12.2,29.99,NW,311,0.0,0.0,45,0.00,,CLR,0.00,VWS V14.01,2013-01-26 12:51:00,
2013-01-26 06:56:00,4.3,-12.4,29.99,NW,312,3.1,4.0,45,0.00,,CLR,0.00,VWS V14.01,2013-01-26 12:56:00,
2013-01-26 07:01:00,4.3,-12.4,29.99,NW,320,2.7,3.6,45,0.00,,CLR,0.00,VWS V14.01,2013-01-26 13:01:00,
2013-01-26 07:06:00,4.1,-12.5,29.99,NW,316,3.1,4.0,45,0.00,,CLR,0.00,VWS V14.01,2013-01-26 13:06:00,
2013-01-26 07:11:00,4.1,-12.5,30.02,NW,319,2.7,4.0,45,0.00,,CLR,0.00,VWS V14.01,2013-01-26 13:11:00,
2013-01-26 07:16:00,4.1,-12.5,30.02,NW,319,2.7,2.7,45,0.00,,CLR,0.00,VWS V14.01,2013-01-26 13:16:00,
2013-01-26 07:21:00,3.9,-12.7,30.02,NW,319,3.1,3.1,45,0.00,,CLR,0.00,VWS V14.01,2013-01-26 13:21:00,
2013-01-26 07:26:00,3.7,-12.9,30.02,NW,314,2.7,4.0,45,0.00,,CLR,0.00,VWS V14.01,2013-01-26 13:26:00,
2013-01-26 07:31:00,3.7,-12.9,30.02,NW,317,4.9,5.4,45,0.00,,CLR,0.00,VWS V14.01,2013-01-26 13:31:00,
2013-01-26 07:36:00,3.9,-12.7,30.02,NW,321,0.0,0.0,45,0.00,,CLR,0.00,VWS V14.01,2013-01-26 13:36:00,
2013-01-26 07:42:00,4.1,-12.5,30.02,NW,311,2.2,4.0,45,0.00,,CLR,0.00,VWS V14.01,2013-01-26 13:42:00,
2013-01-26 07:48:00,4.1,-12.5,30.02,NW,306,0.0,0.0,45,0.00,,CLR,0.00,VWS V14.01,2013-01-26 13:48:00,
2013-01-26 07:53:00,4.1,-12.5,30.02,NW,306,0.0,0.0,45,0.00,,CLR,0.00,VWS V14.01,2013-01-26 13:53:00,
2013-01-26 07:59:00,4.5,-12.2,30.02,West,265,3.1,3.6,45,0.00,,CLR,0.00,VWS V14.01,2013-01-26 13:59:00,
2013-01-26 08:04:00,5.0,-11.7,30.02,SW,214,3.6,3.6,45,0.00,,CLR,0.00,VWS V14.01,2013-01-26 14:04:00,
2013-01-26 08:09:00,5.4,-11.4,30.05,WSW,254,3.1,4.0,45,0.00,,CLR,0.00,VWS V14.01,2013-01-26 14:09:00,
2013-01-26 08:14:00,5.5,-11.2,30.05,SW,224,2.7,4.0,45,0.00,,CLR,0.00,VWS V14.01,2013-01-26 14:14:00,
2013-01-26 08:19:00,5.7,-11.0,30.05,West,263,2.7,2.7,45,0.00,,CLR,0.00,VWS V14.01,2013-01-26 14:19:00,
2013-01-26 08:24:00,5.5,-11.2,30.05,WNW,294,0.0,0.0,45,0.00,,CLR,0.00,VWS V14.01,2013-01-26 14:24:00,
2013-01-26 08:30:00,5.5,-11.2,30.05,WNW,294,0.0,0.0,45,0.00,,CLR,0.00,VWS V14.01,2013-01-26 14:30:00,
2013-01-26 08:35:00,5.5,-11.2,30.05,WNW,294,0.0,0.0,45,0.00,,CLR,0.00,VWS V14.01,2013-01-26 14:35:00,
2013-01-26 08:40:00,5.9,-10.9,30.05,WNW,293,0.0,0.0,45,0.00,,CLR,0.00,VWS V14.01,2013-01-26 14:40:00,
2013-01-26 08:46:00,6.3,-10.5,30.05,WNW,291,0.0,0.0,45,0.00,,CLR,0.00,VWS V14.01,2013-01-26 14:46:00,
2013-01-26 08:51:00,6.4,-10.4,30.05,WNW,283,0.0,0.0,45,0.00,,CLR,0.00,VWS V14.01,2013-01-26 14:51:00,
2013-01-26 08:57:00,6.8,-10.0,30.05,WSW,253,0.0,0.0,45,0.00,,CLR,0.00,VWS V14.01,2013-01-26 14:57:00,
2013-01-26 09:02:00,7.0,-9.9,30.05,West,279,0.0,0.0,45,0.00,,CLR,0.00,VWS V14.01,2013-01-26 15:02:00,
2013-01-26 09:08:00,7.0,-9.9,30.05,WNW,297,3.1,4.0,45,0.00,,CLR,0.00,VWS V14.01,2013-01-26 15:08:00,
2013-01-26 09:13:00,7.2,-9.7,30.05,WNW,290,4.0,4.9,45,0.00,,CLR,0.00,VWS V14.01,2013-01-26 15:13:00,
2013-01-26 09:19:00,7.3,-9.5,30.05,WNW,292,3.1,5.8,45,0.00,,CLR,0.00,VWS V14.01,2013-01-26 15:19:00,
2013-01-26 09:25:00,7.5,-9.4,30.05,WNW,282,2.7,4.0,45,0.00,,CLR,0.00,VWS V14.01,2013-01-26 15:25:00,
2013-01-26 09:30:00,7.9,-9.0,30.05,WNW,299,4.0,5.4,45,0.00,,CLR,0.00,VWS V14.01,2013-01-26 15:30:00,
2013-01-26 09:35:00,8.1,-8.9,30.05,WNW,294,2.7,3.6,45,0.00,,CLR,0.00,VWS V14.01,2013-01-26 15:35:00,
2013-01-26 09:41:00,8.2,-8.7,30.08,West,271,2.2,3.6,45,0.00,,CLR,0.00,VWS V14.01,2013-01-26 15:41:00,
2013-01-26 09:47:00,8.4,-8.5,30.08,NW,308,5.4,6.3,45,0.00,,CLR,0.00,VWS V14.01,2013-01-26 15:47:00,
2013-01-26 09:53:00,8.6,-8.4,30.08,WNW,303,5.4,5.4,45,0.00,,CLR,0.00,VWS V14.01,2013-01-26 15:53:00,
2013-01-26 09:58:00,8.4,-8.5,30.08,NW,319,4.9,5.4,45,0.00,,CLR,0.00,VWS V14.01,2013-01-26 15:58:00,
2013-01-26 10:03:00,8.6,-8.4,30.08,WNW,297,4.0,4.0,45,0.00,,CLR,0.00,VWS V14.01,2013-01-26 16:03:00,
2013-01-26 10:08:00,8.8,-8.2,30.08,NW,316,3.6,4.0,45,0.00,,CLR,0.00,VWS V14.01,2013-01-26 16:08:00,
2013-01-26 10:13:00,9.1,-7.9,30.08,NW,307,6.3,6.3,45,0.00,,CLR,0.00,VWS V14.01,2013-01-26 16:13:00,
2013-01-26 10:18:00,9.1,-7.9,30.08,WSW,252,3.6,4.0,45,0.00,,CLR,0.00,VWS V14.01,2013-01-26 16:18:00,
2013-01-26 10:24:00,9.9,-7.2,30.08,WNW,287,0.0,0.0,45,0.00,,CLR,0.00,VWS V14.01,2013-01-26 16:24:00,
2013-01-26 10:29:00,10.0,-7.1,30.08,WNW,300,3.6,4.0,45,0.00,,CLR,0.00,VWS V14.01,2013-01-26 16:29:00,
2013-01-26 10:35:00,10.2,-6.9,30.08,NW,307,3.1,4.9,45,0.00,,CLR,0.00,VWS V14.01,2013-01-26 16:35:00,
2013-01-26 10:40:00,10.6,-6.6,30.08,WNW,297,2.2,3.6,45,0.00,,CLR,0.00,VWS V14.01,2013-01-26 16:40:00,
2013-01-26 10:45:00,10.9,-6.2,30.08,NW,312,5.4,5.4,45,0.00,,CLR,0.00,VWS V14.01,2013-01-26 16:45:00,
2013-01-26 10:50:00,10.8,-6.4,30.08,NW,307,5.8,6.3,45,0.00,,CLR,0.00,VWS V14.01,2013-01-26 16:50:00,
2013-01-26 10:56:00,10.8,-6.4,30.08,NW,308,5.4,5.8,45,0.00,,CLR,0.00,VWS V14.01,2013-01-26 16:56:00,
2013-01-26 11:01:00,10.9,-6.2,30.08,NW,318,2.2,4.0,45,0.00,,CLR,0.00,VWS V14.01,2013-01-26 17:01:00,
2013-01-26 11:06:00,10.9,-6.2,30.08,WNW,301,3.1,4.9,45,0.00,,CLR,0.00,VWS V14.01,2013-01-26 17:06:00,
2013-01-26 11:11:00,11.1,-6.1,30.08,West,265,4.0,4.0,45,0.00,,CLR,0.00,VWS V14.01,2013-01-26 17:11:00,
2013-01-26 11:17:00,12.0,-5.2,30.08,NW,307,3.1,4.0,45,0.00,,CLR,0.00,VWS V14.01,2013-01-26 17:17:00,
2013-01-26 11:23:00,12.2,-5.1,30.08,WNW,299,2.7,3.6,45,0.00,,CLR,0.00,VWS V14.01,2013-01-26 17:23:00,
2013-01-26 11:28:00,12.4,-4.9,30.08,NW,318,2.7,4.0,45,0.00,,CLR,0.00,VWS V14.01,2013-01-26 17:28:00,
2013-01-26 11:34:00,12.7,-4.6,30.08,NW,318,4.0,4.0,45,0.00,,CLR,0.00,VWS V14.01,2013-01-26 17:34:00,
2013-01-26 11:39:00,12.9,-4.4,30.08,North,353,2.7,3.6,45,0.00,,CLR,0.00,VWS V14.01,2013-01-26 17:39:00,
2013-01-26 11:44:00,13.3,-4.1,30.08,NNW,346,3.1,3.6,45,0.00,,CLR,0.00,VWS V14.01,2013-01-26 17:44:00,
2013-01-26 11:49:00,13.6,-3.8,30.08,North,11,0.0,2.2,45,0.00,,CLR,0.00,VWS V14.01,2013-01-26 17:49:00,
2013-01-26 11:54:00,14.2,-3.7,30.08,NNW,341,0.0,0.0,44,0.00,,CLR,0.00,VWS V14.01,2013-01-26 17:54:00,
2013-01-26 12:00:00,14.4,-3.6,30.08,North,357,0.0,0.0,44,0.00,,CLR,0.00,VWS V14.01,2013-01-26 18:00:00,
2013-01-26 12:06:00,14.5,-3.4,30.08,NNW,345,0.0,0.0,44,0.00,,CLR,0.00,VWS V14.01,2013-01-26 18:06:00,
2013-01-26 12:12:00,15.4,-3.0,30.08,NW,309,3.1,3.1,43,0.00,,CLR,0.00,VWS V14.01,2013-01-26 18:12:00,
2013-01-26 12:17:00,15.4,-3.5,30.08,NW,318,0.0,0.0,42,0.00,,CLR,0.00,VWS V14.01,2013-01-26 18:17:00,
2013-01-26 12:23:00,16.0,-3.0,30.08,NW,317,0.0,0.0,42,0.00,,CLR,0.00,VWS V14.01,2013-01-26 18:23:00,
2013-01-26 12:29:00,16.2,-3.9,30.08,West,263,0.0,0.0,40,0.00,,CLR,0.00,VWS V14.01,2013-01-26 18:29:00,
2013-01-26 12:34:00,17.1,-4.2,30.08,WSW,255,0.0,0.0,38,0.00,,CLR,0.00,VWS V14.01,2013-01-26 18:34:00,
2013-01-26 12:39:00,17.4,-4.4,30.05,WNW,288,0.0,2.7,37,0.00,,CLR,0.00,VWS V14.01,2013-01-26 18:39:00,
2013-01-26 12:44:00,17.6,-3.7,30.05,West,277,0.0,0.0,38,0.00,,CLR,0.00,VWS V14.01,2013-01-26 18:44:00,
2013-01-26 12:49:00,18.1,-3.7,30.05,West,265,0.0,0.0,37,0.00,,CLR,0.00,VWS V14.01,2013-01-26 18:49:00,
2013-01-26 12:54:00,18.1,-3.7,30.05,SW,232,2.7,4.0,37,0.00,,CLR,0.00,VWS V14.01,2013-01-26 18:54:00,
2013-01-26 12:59:00,18.3,-4.2,30.05,WNW,291,2.2,3.1,36,0.00,,CLR,0.00,VWS V14.01,2013-01-26 18:59:00,
2013-01-26 13:05:00,18.7,-3.8,30.05,SW,231,4.0,4.0,36,0.00,,CLR,0.00,VWS V14.01,2013-01-26 19:05:00,
2013-01-26 13:10:00,18.5,-4.0,30.05,WSW,246,3.1,3.6,36,0.00,,CLR,0.00,VWS V14.01,2013-01-26 19:10:00,
2013-01-26 13:16:00,18.5,-4.0,30.05,WSW,255,0.0,2.2,36,0.00,,CLR,0.00,VWS V14.01,2013-01-26 19:16:00,
2013-01-26 13:22:00,18.5,-4.0,30.05,WSW,258,3.6,3.6,36,0.00,,CLR,0.00,VWS V14.01,2013-01-26 19:22:00,
2013-01-26 13:27:00,18.3,-4.2,30.05,WSW,251,0.0,0.0,36,0.00,,CLR,0.00,VWS V14.01,2013-01-26 19:27:00,
2013-01-26 13:33:00,18.5,-3.4,30.05,West,262,2.2,4.9,37,0.00,,CLR,0.00,VWS V14.01,2013-01-26 19:33:00,
2013-01-26 13:39:00,18.3,-4.2,30.05,WSW,241,3.1,5.4,36,0.00,,CLR,0.00,VWS V14.01,2013-01-26 19:39:00,
2013-01-26 13:44:00,18.1,-4.3,30.05,WSW,257,0.0,0.0,36,0.00,,CLR,0.00,VWS V14.01,2013-01-26 19:44:00,
2013-01-26 13:49:00,18.1,-3.7,30.05,West,264,3.1,3.6,37,0.00,,CLR,0.00,VWS V14.01,2013-01-26 19:49:00,
2013-01-26 13:54:00,18.5,-3.4,30.05,WSW,244,2.2,3.1,37,0.00,,CLR,0.00,VWS V14.01,2013-01-26 19:54:00,
2013-01-26 13:59:00,18.9,-3.7,30.05,West,261,2.7,3.6,36,0.00,,CLR,0.00,VWS V14.01,2013-01-26 19:59:00,
2013-01-26 14:05:00,19.4,-2.6,30.05,West,261,0.0,0.0,37,0.00,,CLR,0.00,VWS V14.01,2013-01-26 20:05:00,
2013-01-26 14:10:00,20.1,-2.5,30.05,West,261,0.0,0.0,36,0.00,,CLR,0.00,VWS V14.01,2013-01-26 20:10:00,
2013-01-26 14:15:00,20.5,-2.2,30.05,West,261,0.0,0.0,36,0.00,,CLR,0.00,VWS V14.01,2013-01-26 20:15:00,
2013-01-26 14:21:00,20.3,-3.0,30.05,SW,234,4.9,5.8,35,0.00,,CLR,0.00,VWS V14.01,2013-01-26 20:21:00,
2013-01-26 14:26:00,19.6,-3.6,30.08,SSW,200,2.7,3.1,35,0.00,,CLR,0.00,VWS V14.01,2013-01-26 20:26:00,
2013-01-26 14:32:00,19.2,-3.3,30.08,South,184,0.0,0.0,36,0.00,,CLR,0.00,VWS V14.01,2013-01-26 20:32:00,
2013-01-26 14:37:00,19.4,-3.2,30.08,South,180,0.0,0.0,36,0.00,,CLR,0.00,VWS V14.01,2013-01-26 20:37:00,
2013-01-26 14:43:00,20.3,-2.4,30.08,South,182,0.0,0.0,36,0.00,,CLR,0.00,VWS V14.01,2013-01-26 20:43:00,
2013-01-26 14:49:00,21.4,-2.6,30.08,South,180,0.0,0.0,34,0.00,,CLR,0.00,VWS V14.01,2013-01-26 20:49:00,
2013-01-26 14:54:00,21.9,-2.1,30.08,South,183,0.0,0.0,34,0.00,,CLR,0.00,VWS V14.01,2013-01-26 20:54:00,
2013-01-26 14:59:00,23.0,-0.6,30.08,ESE,106,0.0,0.0,35,0.00,,CLR,0.00,VWS V14.01,2013-01-26 20:59:00,
2013-01-26 15:04:00,24.3,-0.1,30.08,East,92,0.0,0.0,34,0.00,,CLR,0.00,VWS V14.01,2013-01-26 21:04:00,
2013-01-26 15:09:00,25.0,0.6,30.05,East,92,0.0,0.0,34,0.00,,CLR,0.00,VWS V14.01,2013-01-26 21:09:00,
2013-01-26 15:15:00,25.9,0.8,30.05,SSE,164,0.0,0.0,33,0.00,,CLR,0.00,VWS V14.01,2013-01-26 21:15:00,
2013-01-26 15:21:00,25.3,-0.4,30.05,SSE,166,0.0,0.0,32,0.00,,CLR,0.00,VWS V14.01,2013-01-26 21:21:00,
2013-01-26 15:26:00,24.4,-0.5,30.08,SW,224,0.0,0.0,33,0.00,,CLR,0.00,VWS V14.01,2013-01-26 21:26:00,
2013-01-26 15:31:00,22.8,-2.0,30.08,SW,231,0.0,0.0,33,0.00,,CLR,0.00,VWS V14.01,2013-01-26 21:31:00,
2013-01-26 15:36:00,21.9,-2.8,30.08,SW,226,0.0,0.0,33,0.00,,CLR,0.00,VWS V14.01,2013-01-26 21:36:00,
2013-01-26 15:42:00,21.6,-3.1,30.08,SSW,194,0.0,0.0,33,0.00,,CLR,0.00,VWS V14.01,2013-01-26 21:42:00,
2013-01-26 15:47:00,21.6,-3.1,30.08,ESE,113,0.0,0.0,33,0.00,,CLR,0.00,VWS V14.01,2013-01-26 21:47:00,
2013-01-26 15:52:00,21.0,-2.9,30.08,SE,142,0.0,0.0,34,0.00,,CLR,0.00,VWS V14.01,2013-01-26 21:52:00,
2013-01-26 15:58:00,21.2,-2.8,30.08,SSW,205,0.0,0.0,34,0.00,,CLR,0.00,VWS V14.01,2013-01-26 21:58:00,
2013-01-26 16:04:00,21.0,-2.9,30.08,SSW,205,0.0,0.0,34,0.00,,CLR,0.00,VWS V14.01,2013-01-26 22:04:00,
2013-01-26 16:09:00,20.8,-3.1,30.08,SSW,205,0.0,0.0,34,0.00,,CLR,0.00,VWS V14.01,2013-01-26 22:09:00,
2013-01-26 16:14:00,20.7,-3.3,30.08,ESE,113,2.7,4.0,34,0.00,,CLR,0.00,VWS V14.01,2013-01-26 22:14:00,
2013-01-26 16:19:00,20.7,-3.3,30.08,ESE,111,0.0,0.0,34,0.00,,CLR,0.00,VWS V14.01,2013-01-26 22:19:00,
2013-01-26 16:24:00,20.7,-3.3,30.05,ESE,112,0.0,0.0,34,0.00,,CLR,0.00,VWS V14.01,2013-01-26 22:24:00,
2013-01-26 16:30:00,20.7,-2.7,30.05,ESE,103,0.0,2.7,35,0.00,,CLR,0.00,VWS V14.01,2013-01-26 22:30:00,
2013-01-26 16:35:00,20.8,-2.5,30.05,ESE,103,0.0,0.0,35,0.00,,CLR,0.00,VWS V14.01,2013-01-26 22:35:00,
2013-01-26 16:41:00,20.7,-2.7,30.05,SE,139,0.0,0.0,35,0.00,,CLR,0.00,VWS V14.01,2013-01-26 22:41:00,
2013-01-26 16:46:00,20.3,-3.0,30.05,East,98,2.2,3.1,35,0.00,,CLR,0.00,VWS V14.01,2013-01-26 22:46:00,
2013-01-26 16:52:00,20.1,-3.1,30.05,East,98,0.0,0.0,35,0.00,,CLR,0.00,VWS V14.01,2013-01-26 22:52:00,
2013-01-26 16:58:00,19.8,-3.5,30.05,ESE,111,3.1,4.0,35,0.00,,CLR,0.00,VWS V14.01,2013-01-26 22:58:00,
2013-01-26 17:03:00,19.4,-3.8,30.05,ESE,112,0.0,0.0,35,0.00,,CLR,0.00,VWS V14.01,2013-01-26 23:03:00,
2013-01-26 17:09:00,19.0,-4.1,30.05,ESE,111,0.0,0.0,35,0.00,,CLR,0.00,VWS V14.01,2013-01-26 23:09:00,
2013-01-26 17:14:00,18.5,-4.6,30.05,ESE,111,0.0,0.0,35,0.00,,CLR,0.00,VWS V14.01,2013-01-26 23:14:00,
2013-01-26 17:20:00,18.3,-4.7,30.05,ESE,111,0.0,0.0,35,0.00,,CLR,0.00,VWS V14.01,2013-01-26 23:20:00,
2013-01-26 17:25:00,18.0,-5.1,30.05,ESE,111,0.0,0.0,35,0.00,,CLR,0.00,VWS V14.01,2013-01-26 23:25:00,
2013-01-26 17:30:00,17.8,-5.2,30.05,ESE,111,0.0,0.0,35,0.00,,CLR,0.00,VWS V14.01,2013-01-26 23:30:00,
2013-01-26 17:36:00,17.6,-4.8,30.05,East,97,0.0,0.0,36,0.00,,CLR,0.00,VWS V14.01,2013-01-26 23:36:00,
2013-01-26 17:41:00,17.4,-5.0,30.05,East,97,0.0,0.0,36,0.00,,CLR,0.00,VWS V14.01,2013-01-26 23:41:00,
2013-01-26 17:47:00,17.1,-5.3,30.05,East,97,0.0,0.0,36,0.00,,CLR,0.00,VWS V14.01,2013-01-26 23:47:00,
2013-01-26 17:52:00,17.1,-4.7,30.05,East,97,0.0,0.0,37,0.00,,CLR,0.00,VWS V14.01,2013-01-26 23:52:00,
2013-01-26 17:58:00,17.1,-4.7,30.05,East,97,0.0,0.0,37,0.00,,CLR,0.00,VWS V14.01,2013-01-26 23:58:00,
2013-01-26 18:03:00,17.2,-2.9,30.05,East,97,0.0,0.0,40,0.00,,OVC090,0.00,VWS V14.01,2013-01-27 00:03:00,
2013-01-26 18:08:00,17.6,-2.6,30.05,East,97,0.0,0.0,40,0.00,,OVC090,0.00,VWS V14.01,2013-01-27 00:08:00,
2013-01-26 18:13:00,17.8,-2.4,30.05,East,98,0.0,0.0,40,0.00,,OVC090,0.00,VWS V14.01,2013-01-27 00:13:00,
2013-01-26 18:18:00,17.8,-2.4,30.05,SE,135,0.0,0.0,40,0.00,,OVC090,0.00,VWS V14.01,2013-01-27 00:18:00,
2013-01-26 18:23:00,18.0,-2.3,30.05,SE,132,0.0,0.0,40,0.00,,OVC090,0.00,VWS V14.01,2013-01-27 00:23:00,
2013-01-26 18:29:00,18.1,-2.1,30.05,ESE,112,0.0,0.0,40,0.00,,OVC090,0.00,VWS V14.01,2013-01-27 00:29:00,
2013-01-26 18:34:00,18.1,-2.1,30.05,ESE,118,0.0,3.1,40,0.00,,OVC090,0.00,VWS V14.01,2013-01-27 00:34:00,
2013-01-26 18:40:00,18.3,-2.0,30.05,ESE,112,0.0,0.0,40,0.00,,OVC090,0.00,VWS V14.01,2013-01-27 00:40:00,
2013-01-26 18:45:00,18.3,-1.4,30.05,ESE,112,0.0,0.0,41,0.00,,OVC090,0.00,VWS V14.01,2013-01-27 00:45:00,
2013-01-26 18:50:00,18.3,-1.4,30.05,ESE,112,0.0,0.0,41,0.00,,OVC090,0.00,VWS V14.01,2013-01-27 00:50:00,
2013-01-26 18:56:00,18.3,-1.4,30.05,ESE,112,0.0,0.0,41,0.00,,OVC090,0.00,VWS V14.01,2013-01-27 00:56:00,
2013-01-26 19:01:00,18.5,-1.3,30.05,ESE,112,0.0,0.0,41,0.00,,CLR,0.00,VWS V14.01,2013-01-27 01:01:00,
2013-01-26 19:07:00,18.5,-0.8,30.05,ESE,109,0.0,0.0,42,0.00,,CLR,0.00,VWS V14.01,2013-01-27 01:07:00,
2013-01-26 19:12:00,18.7,-0.6,30.05,ESE,109,0.0,0.0,42,0.00,,CLR,0.00,VWS V14.01,2013-01-27 01:12:00,
2013-01-26 19:19:00,18.7,-0.6,30.05,ESE,120,0.0,0.0,42,0.00,,CLR,0.00,VWS V14.01,2013-01-27 01:19:00,
2013-01-26 19:24:00,18.9,-0.4,30.05,SE,125,0.0,0.0,42,0.00,,CLR,0.00,VWS V14.01,2013-01-27 01:24:00,
2013-01-26 19:29:00,19.0,0.2,30.05,SSE,147,0.0,0.0,43,0.00,,CLR,0.00,VWS V14.01,2013-01-27 01:29:00,
2013-01-26 19:34:00,19.0,0.2,30.05,SSE,147,0.0,0.0,43,0.00,,CLR,0.00,VWS V14.01,2013-01-27 01:34:00,
2013-01-26 19:39:00,19.0,0.2,30.05,SSE,152,0.0,0.0,43,0.00,,CLR,0.00,VWS V14.01,2013-01-27 01:39:00,
2013-01-26 19:44:00,19.2,0.4,30.05,SSE,153,0.0,0.0,43,0.00,,CLR,0.00,VWS V14.01,2013-01-27 01:44:00,
2013-01-26 19:50:00,19.2,0.4,30.05,SSE,154,0.0,0.0,43,0.00,,CLR,0.00,VWS V14.01,2013-01-27 01:50:00,
2013-01-26 19:55:00,19.2,0.4,30.05,SSE,156,0.0,0.0,43,0.00,,CLR,0.00,VWS V14.01,2013-01-27 01:55:00,
2013-01-26 20:00:00,19.4,0.6,30.05,SSE,156,0.0,0.0,43,0.00,,CLR,0.00,VWS V14.01,2013-01-27 02:00:00,
2013-01-26 20:06:00,19.4,0.6,30.05,South,176,0.0,4.0,43,0.00,,BKN120,0.00,VWS V14.01,2013-01-27 02:06:00,
2013-01-26 20:12:00,19.6,0.7,30.05,South,169,3.1,3.1,43,0.00,,BKN120,0.00,VWS V14.01,2013-01-27 02:12:00,
2013-01-26 20:17:00,19.6,0.7,30.05,SSE,163,0.0,0.0,43,0.00,,BKN120,0.00,VWS V14.01,2013-01-27 02:17:00,
2013-01-26 20:22:00,19.6,0.7,30.05,SSE,163,0.0,0.0,43,0.00,,BKN120,0.00,VWS V14.01,2013-01-27 02:22:00,
2013-01-26 20:27:00,19.8,0.9,30.05,SSE,161,0.0,0.0,43,0.00,,BKN120,0.00,VWS V14.01,2013-01-27 02:27:00,
2013-01-26 20:32:00,19.8,0.9,30.05,ESE,114,3.6,4.9,43,0.00,,BKN120,0.00,VWS V14.01,2013-01-27 02:32:00,
2013-01-26 20:38:00,19.8,0.9,30.05,SSE,155,0.0,0.0,43,0.00,,BKN120,0.00,VWS V14.01,2013-01-27 02:38:00,
2013-01-26 20:43:00,19.8,0.9,30.05,SE,146,2.7,3.6,43,0.00,,BKN120,0.00,VWS V14.01,2013-01-27 02:43:00,
2013-01-26 20:49:00,19.8,0.9,30.05,ESE,111,0.0,2.2,43,0.00,,BKN120,0.00,VWS V14.01,2013-01-27 02:49:00,
2013-01-26 20:55:00,19.9,1.1,30.05,SSE,159,0.0,0.0,43,0.00,,BKN120,0.00,VWS V14.01,2013-01-27 02:55:00,
2013-01-26 21:00:00,19.9,0.6,30.05,SSE,154,4.9,4.9,42,0.00,,BKN120,0.00,VWS V14.01,2013-01-27 03:00:00,
2013-01-26 21:06:00,20.1,0.7,30.05,SSE,163,5.4,5.4,42,0.00,,OVC110,0.00,VWS V14.01,2013-01-27 03:06:00,
2013-01-26 21:11:00,20.1,0.2,30.05,South,171,3.6,6.3,41,0.00,,OVC110,0.00,VWS V14.01,2013-01-27 03:11:00,
2013-01-26 21:17:00,20.3,-0.2,30.05,South,170,2.7,5.4,40,0.00,,OVC110,0.00,VWS V14.01,2013-01-27 03:17:00,
2013-01-26 21:23:00,20.3,-0.7,30.05,SSE,159,4.0,4.0,39,0.00,,OVC110,0.00,VWS V14.01,2013-01-27 03:23:00,
2013-01-26 21:28:00,20.5,-0.5,30.05,SSE,154,0.0,4.0,39,0.00,,OVC110,0.00,VWS V14.01,2013-01-27 03:28:00,
2013-01-26 21:34:00,20.5,-0.5,30.05,SSE,164,2.2,6.3,39,0.00,,OVC110,0.00,VWS V14.01,2013-01-27 03:34:00,
2013-01-26 21:40:00,20.7,-0.4,30.05,SSE,163,5.4,6.3,39,0.00,,OVC110,0.00,VWS V14.01,2013-01-27 03:40:00,
2013-01-26 21:45:00,20.7,-0.4,30.05,SSE,158,4.0,4.0,39,0.00,,OVC110,0.00,VWS V14.01,2013-01-27 03:45:00,
2013-01-26 21:50:00,20.7,-0.4,30.05,SSE,163,4.0,5.8,39,0.00,,OVC110,0.00,VWS V14.01,2013-01-27 03:50:00,
2013-01-26 21:55:00,20.7,-0.4,30.05,SSE,168,4.0,6.3,39,0.00,,OVC110,0.00,VWS V14.01,2013-01-27 03:55:00,
2013-01-26 22:01:00,20.8,-0.2,30.05,SSE,168,5.8,5.8,39,0.00,,OVC095,0.00,VWS V14.01,2013-01-27 04:01:00,
2013-01-26 22:07:00,21.0,0.0,30.05,South,179,4.0,5.8,39,0.00,,OVC095,0.00,VWS V14.01,2013-01-27 04:07:00,
2013-01-26 22:13:00,21.2,0.1,30.05,South,170,4.5,6.3,39,0.00,,OVC095,0.00,VWS V14.01,2013-01-27 04:13:00,
2013-01-26 22:18:00,21.2,-0.4,30.05,South,172,8.1,8.1,38,0.00,,OVC095,0.00,VWS V14.01,2013-01-27 04:18:00,
2013-01-26 22:23:00,21.2,-0.4,30.05,South,187,3.1,8.1,38,0.00,,OVC095,0.00,VWS V14.01,2013-01-27 04:23:00,
2013-01-26 22:28:00,21.2,-0.4,30.05,South,190,4.9,7.6,38,0.00,,OVC095,0.00,VWS V14.01,2013-01-27 04:28:00,
2013-01-26 22:34:00,21.4,-0.3,30.05,SSE,161,5.4,8.1,38,0.00,,OVC095,0.00,VWS V14.01,2013-01-27 04:34:00,
2013-01-26 22:39:00,21.4,-0.8,30.05,South,191,3.1,8.7,37,0.00,,OVC095,0.00,VWS V14.01,2013-01-27 04:39:00,
2013-01-26 22:45:00,21.6,-1.2,30.05,SSE,166,6.3,6.3,36,0.00,,OVC095,0.00,VWS V14.01,2013-01-27 04:45:00,
2013-01-26 22:50:00,21.6,-1.2,30.05,SSE,166,5.4,8.3,36,0.00,,OVC095,0.00,VWS V14.01,2013-01-27 04:50:00,
2013-01-26 22:55:00,21.6,-1.2,30.05,South,180,5.8,5.8,36,0.00,,OVC095,0.00,VWS V14.01,2013-01-27 04:55:00,
2013-01-26 23:01:00,21.7,-1.1,30.05,SE,139,6.3,7.6,36,0.00,,OVC095,0.00,VWS V14.01,2013-01-27 05:01:00,
2013-01-26 23:05:00,21.7,-1.1,30.05,SSE,154,6.3,8.7,36,0.00,,OVC085,0.00,VWS V14.01,2013-01-27 05:05:00,
2013-01-26 23:08:00,21.7,-1.1,30.02,SSE,164,8.7,8.7,36,0.00,,OVC085,0.00,VWS V14.01,2013-01-27 05:08:00,
2013-01-26 23:13:00,21.9,-0.9,30.02,SSW,212,7.6,7.6,36,0.00,,OVC085,0.00,VWS V14.01,2013-01-27 05:13:00,
2013-01-26 23:19:00,21.9,-0.9,30.02,SSE,163,5.4,7.6,36,0.00,,OVC085,0.00,VWS V14.01,2013-01-27 05:19:00,
2013-01-26 23:24:00,21.9,-0.9,30.02,South,175,5.8,8.1,36,0.00,,OVC085,0.00,VWS V14.01,2013-01-27 05:24:00,
2013-01-26 23:29:00,21.7,-1.1,30.02,SSE,161,5.4,10.1,36,0.00,,OVC085,0.00,VWS V14.01,2013-01-27 05:29:00,
2013-01-26 23:34:00,21.7,-1.1,30.02,South,187,6.3,8.3,36,0.00,,OVC085,0.00,VWS V14.01,2013-01-27 05:34:00,
2013-01-26 23:39:00,21.7,-1.1,30.02,SSE,160,4.0,6.3,36,0.00,,OVC085,0.00,VWS V14.01,2013-01-27 05:39:00,
2013-01-26 23:44:00,21.7,-1.1,30.02,South,179,3.6,5.8,36,0.00,,OVC085,0.00,VWS V14.01,2013-01-27 05:44:00,
2013-01-26 23:50:00,21.7,-1.1,30.02,South,181,4.0,10.1,36,0.00,,OVC085,0.00,VWS V14.01,2013-01-27 05:50:00,
2013-01-26 23:55:00,21.7,-1.1,30.02,South,177,4.0,5.8,36,0.00,,OVC085,0.00,VWS V14.01,2013-01-27 05:55:00,